sensor_id;sensor_type;location;lat;lon;timestamp;pressure;altitude;pressure_sealevel;temperature;humidity
37238;BME280;23129;49.662;8.448;2022-08-03T00:02:18;100630.72;;;22.32;45.90
37238;BME280;23129;49.662;8.448;2022-08-03T00:04:47;100628.38;;;22.27;46.12
37238;BME280;23129;49.662;8.448;2022-08-03T00:07:16;100633.94;;;22.24;46.24
37238;BME280;23129;49.662;8.448;2022-08-03T00:09:44;100623.50;;;22.21;46.20
37238;BME280;23129;49.662;8.448;2022-08-03T00:12:13;100626.50;;;22.17;46.33
37238;BME280;23129;49.662;8.448;2022-08-03T00:14:42;100632.16;;;22.12;46.43
37238;BME280;23129;49.662;8.448;2022-08-03T00:17:10;100635.16;;;22.07;46.58
37238;BME280;23129;49.662;8.448;2022-08-03T00:19:40;100639.13;;;22.02;46.65
37238;BME280;23129;49.662;8.448;2022-08-03T00:22:08;100636.78;;;21.97;46.75
37238;BME280;23129;49.662;8.448;2022-08-03T00:24:37;100631.75;;;21.93;47.07
37238;BME280;23129;49.662;8.448;2022-08-03T00:27:05;100632.22;;;21.86;47.25
37238;BME280;23129;49.662;8.448;2022-08-03T00:29:34;100634.25;;;21.83;47.39
37238;BME280;23129;49.662;8.448;2022-08-03T00:32:22;100627.31;;;21.80;47.48
37238;BME280;23129;49.662;8.448;2022-08-03T00:34:52;100633.00;;;21.76;47.57
37238;BME280;23129;49.662;8.448;2022-08-03T00:37:25;100632.38;;;21.72;47.92
37238;BME280;23129;49.662;8.448;2022-08-03T00:40:10;100630.88;;;21.68;47.66
37238;BME280;23129;49.662;8.448;2022-08-03T00:42:47;100627.47;;;21.66;47.83
37238;BME280;23129;49.662;8.448;2022-08-03T00:45:17;100631.09;;;21.65;48.02
37238;BME280;23129;49.662;8.448;2022-08-03T00:47:46;100633.88;;;21.63;48.28
37238;BME280;23129;49.662;8.448;2022-08-03T00:50:17;100633.03;;;21.63;48.31
37238;BME280;23129;49.662;8.448;2022-08-03T00:52:46;100628.75;;;21.60;48.67
37238;BME280;23129;49.662;8.448;2022-08-03T00:55:15;100616.56;;;21.56;48.84
37238;BME280;23129;49.662;8.448;2022-08-03T00:57:44;100630.03;;;21.55;49.02
37238;BME280;23129;49.662;8.448;2022-08-03T01:00:16;100631.75;;;21.56;48.97
37238;BME280;23129;49.662;8.448;2022-08-03T01:02:45;100626.41;;;21.56;49.16
37238;BME280;23129;49.662;8.448;2022-08-03T01:05:16;100634.53;;;21.54;49.19
37238;BME280;23129;49.662;8.448;2022-08-03T01:08:00;100631.13;;;21.52;49.19
37238;BME280;23129;49.662;8.448;2022-08-03T01:10:38;100620.66;;;21.49;49.45
37238;BME280;23129;49.662;8.448;2022-08-03T01:13:26;100626.28;;;21.45;49.45
37238;BME280;23129;49.662;8.448;2022-08-03T01:16:21;100619.47;;;21.40;49.77
37238;BME280;23129;49.662;8.448;2022-08-03T01:19:20;100619.81;;;21.36;49.72
37238;BME280;23129;49.662;8.448;2022-08-03T01:22:09;100622.75;;;21.31;49.77
37238;BME280;23129;49.662;8.448;2022-08-03T01:24:49;100616.16;;;21.24;49.87
37238;BME280;23129;49.662;8.448;2022-08-03T01:27:33;100620.84;;;21.20;50.13
37238;BME280;23129;49.662;8.448;2022-08-03T01:30:08;100614.88;;;21.17;50.45
37238;BME280;23129;49.662;8.448;2022-08-03T01:32:45;100614.13;;;21.15;50.49
37238;BME280;23129;49.662;8.448;2022-08-03T01:35:32;100616.97;;;21.12;50.42
37238;BME280;23129;49.662;8.448;2022-08-03T01:38:11;100612.28;;;21.03;50.68
37238;BME280;23129;49.662;8.448;2022-08-03T01:40:42;100613.81;;;20.94;51.06
37238;BME280;23129;49.662;8.448;2022-08-03T01:43:16;100620.50;;;20.87;51.14
37238;BME280;23129;49.662;8.448;2022-08-03T01:46:07;100612.06;;;20.80;51.18
37238;BME280;23129;49.662;8.448;2022-08-03T01:48:39;100615.03;;;20.75;51.44
37238;BME280;23129;49.662;8.448;2022-08-03T01:51:10;100611.84;;;20.70;51.76
37238;BME280;23129;49.662;8.448;2022-08-03T01:53:40;100611.16;;;20.67;51.77
37238;BME280;23129;49.662;8.448;2022-08-03T01:56:10;100609.03;;;20.59;51.80
37238;BME280;23129;49.662;8.448;2022-08-03T01:58:40;100613.94;;;20.52;51.78
37238;BME280;23129;49.662;8.448;2022-08-03T02:01:11;100608.78;;;20.49;52.13
37238;BME280;23129;49.662;8.448;2022-08-03T02:03:42;100607.25;;;20.45;52.04
37238;BME280;23129;49.662;8.448;2022-08-03T02:06:30;100612.78;;;20.42;52.49
37238;BME280;23129;49.662;8.448;2022-08-03T02:09:21;100612.78;;;20.42;52.48
37238;BME280;23129;49.662;8.448;2022-08-03T02:11:51;100607.47;;;20.42;52.32
37238;BME280;23129;49.662;8.448;2022-08-03T02:14:21;100605.75;;;20.41;52.31
37238;BME280;23129;49.662;8.448;2022-08-03T02:16:52;100605.97;;;20.38;52.19
37238;BME280;23129;49.662;8.448;2022-08-03T02:19:22;100602.53;;;20.36;52.69
37238;BME280;23129;49.662;8.448;2022-08-03T02:21:52;100607.22;;;20.33;52.51
37238;BME280;23129;49.662;8.448;2022-08-03T02:24:37;100608.47;;;20.27;52.69
37238;BME280;23129;49.662;8.448;2022-08-03T02:27:12;100610.56;;;20.22;52.79
37238;BME280;23129;49.662;8.448;2022-08-03T02:29:48;100606.53;;;20.16;52.93
37238;BME280;23129;49.662;8.448;2022-08-03T02:32:29;100610.44;;;20.11;53.02
37238;BME280;23129;49.662;8.448;2022-08-03T02:35:00;100603.59;;;20.06;53.32
37238;BME280;23129;49.662;8.448;2022-08-03T02:37:34;100604.75;;;20.02;53.06
37238;BME280;23129;49.662;8.448;2022-08-03T02:40:11;100606.66;;;20.00;53.24
37238;BME280;23129;49.662;8.448;2022-08-03T02:42:41;100598.97;;;19.96;53.31
37238;BME280;23129;49.662;8.448;2022-08-03T02:45:14;100599.91;;;19.95;53.49
37238;BME280;23129;49.662;8.448;2022-08-03T02:47:45;100601.72;;;19.94;53.68
37238;BME280;23129;49.662;8.448;2022-08-03T02:50:22;100598.28;;;19.92;53.62
37238;BME280;23129;49.662;8.448;2022-08-03T02:52:52;100596.50;;;19.93;53.80
37238;BME280;23129;49.662;8.448;2022-08-03T02:55:23;100599.25;;;19.91;53.55
37238;BME280;23129;49.662;8.448;2022-08-03T02:57:54;100602.03;;;19.90;53.65
37238;BME280;23129;49.662;8.448;2022-08-03T03:00:28;100598.50;;;19.89;53.89
37238;BME280;23129;49.662;8.448;2022-08-03T03:03:01;100589.78;;;19.87;53.80
37238;BME280;23129;49.662;8.448;2022-08-03T03:05:32;100588.25;;;19.83;53.90
37238;BME280;23129;49.662;8.448;2022-08-03T03:08:22;100593.97;;;19.77;54.30
37238;BME280;23129;49.662;8.448;2022-08-03T03:10:58;100593.50;;;19.70;54.49
37238;BME280;23129;49.662;8.448;2022-08-03T03:13:28;100593.69;;;19.67;54.37
37238;BME280;23129;49.662;8.448;2022-08-03T03:16:00;100589.41;;;19.65;54.60
37238;BME280;23129;49.662;8.448;2022-08-03T03:18:32;100602.88;;;19.61;54.49
37238;BME280;23129;49.662;8.448;2022-08-03T03:21:03;100593.41;;;19.57;54.52
37238;BME280;23129;49.662;8.448;2022-08-03T03:23:36;100598.91;;;19.54;54.57
37238;BME280;23129;49.662;8.448;2022-08-03T03:26:05;100595.47;;;19.52;55.17
37238;BME280;23129;49.662;8.448;2022-08-03T03:28:35;100597.38;;;19.50;55.13
37238;BME280;23129;49.662;8.448;2022-08-03T03:31:04;100598.34;;;19.49;55.20
37238;BME280;23129;49.662;8.448;2022-08-03T03:33:36;100599.31;;;19.48;55.32
37238;BME280;23129;49.662;8.448;2022-08-03T03:36:07;100598.53;;;19.46;55.25
37238;BME280;23129;49.662;8.448;2022-08-03T03:38:36;100605.66;;;19.46;55.35
37238;BME280;23129;49.662;8.448;2022-08-03T03:41:04;100598.72;;;19.43;55.71
37238;BME280;23129;49.662;8.448;2022-08-03T03:43:33;100599.88;;;19.39;56.04
37238;BME280;23129;49.662;8.448;2022-08-03T03:46:02;100607.94;;;19.37;56.35
37238;BME280;23129;49.662;8.448;2022-08-03T03:48:30;100603.47;;;19.38;56.54
37238;BME280;23129;49.662;8.448;2022-08-03T03:51:01;100609.75;;;19.37;56.74
37238;BME280;23129;49.662;8.448;2022-08-03T03:53:29;100614.28;;;19.35;56.66
37238;BME280;23129;49.662;8.448;2022-08-03T03:55:58;100614.41;;;19.33;56.72
37238;BME280;23129;49.662;8.448;2022-08-03T03:58:31;100608.25;;;19.33;57.17
37238;BME280;23129;49.662;8.448;2022-08-03T04:00:59;100605.59;;;19.33;57.26
37238;BME280;23129;49.662;8.448;2022-08-03T04:03:28;100610.91;;;19.33;57.46
37238;BME280;23129;49.662;8.448;2022-08-03T04:05:57;100609.16;;;19.32;57.44
37238;BME280;23129;49.662;8.448;2022-08-03T04:08:44;100602.16;;;19.31;57.64
37238;BME280;23129;49.662;8.448;2022-08-03T04:11:37;100618.28;;;19.28;57.28
37238;BME280;23129;49.662;8.448;2022-08-03T04:14:11;100616.69;;;19.25;57.77
37238;BME280;23129;49.662;8.448;2022-08-03T04:16:43;100621.22;;;19.23;57.61
37238;BME280;23129;49.662;8.448;2022-08-03T04:19:18;100615.25;;;19.20;57.86
37238;BME280;23129;49.662;8.448;2022-08-03T04:21:56;100624.19;;;19.19;58.28
37238;BME280;23129;49.662;8.448;2022-08-03T04:24:33;100618.84;;;19.19;57.92
37238;BME280;23129;49.662;8.448;2022-08-03T04:27:05;100611.66;;;19.21;58.08
37238;BME280;23129;49.662;8.448;2022-08-03T04:29:36;100614.19;;;19.22;58.52
37238;BME280;23129;49.662;8.448;2022-08-03T04:32:15;100618.47;;;19.25;58.59
37238;BME280;23129;49.662;8.448;2022-08-03T04:34:45;100623.63;;;19.28;58.43
37238;BME280;23129;49.662;8.448;2022-08-03T04:37:23;100621.91;;;19.27;58.19
37238;BME280;23129;49.662;8.448;2022-08-03T04:39:56;100623.63;;;19.28;58.57
37238;BME280;23129;49.662;8.448;2022-08-03T04:42:26;100620.00;;;19.29;58.37
37238;BME280;23129;49.662;8.448;2022-08-03T04:44:56;100635.75;;;19.32;58.46
37238;BME280;23129;49.662;8.448;2022-08-03T04:47:31;100633.88;;;19.34;58.70
37238;BME280;23129;49.662;8.448;2022-08-03T04:50:01;100631.13;;;19.35;58.88
37238;BME280;23129;49.662;8.448;2022-08-03T04:52:34;100633.69;;;19.37;58.55
37238;BME280;23129;49.662;8.448;2022-08-03T04:55:06;100623.72;;;19.41;58.59
37238;BME280;23129;49.662;8.448;2022-08-03T04:57:34;100626.28;;;19.42;58.91
37238;BME280;23129;49.662;8.448;2022-08-03T05:00:04;100623.44;;;19.45;58.90
37238;BME280;23129;49.662;8.448;2022-08-03T05:02:33;100625.91;;;19.48;58.84
37238;BME280;23129;49.662;8.448;2022-08-03T05:05:02;100620.38;;;19.51;58.94
37238;BME280;23129;49.662;8.448;2022-08-03T05:07:30;100629.16;;;19.53;59.11
37238;BME280;23129;49.662;8.448;2022-08-03T05:10:07;100622.66;;;19.57;59.07
37238;BME280;23129;49.662;8.448;2022-08-03T05:12:44;100623.31;;;19.61;59.45
37238;BME280;23129;49.662;8.448;2022-08-03T05:15:13;100635.59;;;19.64;59.31
37238;BME280;23129;49.662;8.448;2022-08-03T05:17:42;100630.97;;;19.67;59.64
37238;BME280;23129;49.662;8.448;2022-08-03T05:20:11;100630.75;;;19.70;59.86
37238;BME280;23129;49.662;8.448;2022-08-03T05:22:42;100636.75;;;19.74;59.93
37238;BME280;23129;49.662;8.448;2022-08-03T05:25:12;100626.78;;;19.77;60.01
37238;BME280;23129;49.662;8.448;2022-08-03T05:27:45;100629.13;;;19.82;60.15
37238;BME280;23129;49.662;8.448;2022-08-03T05:30:13;100633.31;;;19.86;60.27
37238;BME280;23129;49.662;8.448;2022-08-03T05:33:00;100638.22;;;19.92;60.39
37238;BME280;23129;49.662;8.448;2022-08-03T05:35:30;100635.22;;;19.98;60.41
37238;BME280;23129;49.662;8.448;2022-08-03T05:38:18;100638.41;;;20.03;60.58
37238;BME280;23129;49.662;8.448;2022-08-03T05:40:56;100634.41;;;20.11;60.32
37238;BME280;23129;49.662;8.448;2022-08-03T05:43:45;100639.34;;;20.17;60.41
37238;BME280;23129;49.662;8.448;2022-08-03T05:46:14;100639.78;;;20.23;60.85
37238;BME280;23129;49.662;8.448;2022-08-03T05:48:42;100638.53;;;20.29;60.84
37238;BME280;23129;49.662;8.448;2022-08-03T05:51:11;100641.78;;;20.34;61.06
37238;BME280;23129;49.662;8.448;2022-08-03T05:53:40;100648.59;;;20.38;61.08
37238;BME280;23129;49.662;8.448;2022-08-03T05:56:10;100646.50;;;20.43;61.00
37238;BME280;23129;49.662;8.448;2022-08-03T05:58:44;100645.22;;;20.49;61.35
37238;BME280;23129;49.662;8.448;2022-08-03T06:01:14;100642.28;;;20.54;61.20
37238;BME280;23129;49.662;8.448;2022-08-03T06:03:44;100648.16;;;20.59;61.43
37238;BME280;23129;49.662;8.448;2022-08-03T06:06:13;100646.78;;;20.66;61.06
37238;BME280;23129;49.662;8.448;2022-08-03T06:08:43;100650.00;;;20.71;61.10
37238;BME280;23129;49.662;8.448;2022-08-03T06:11:13;100644.28;;;20.77;61.15
37238;BME280;23129;49.662;8.448;2022-08-03T06:13:43;100651.00;;;20.83;60.67
37238;BME280;23129;49.662;8.448;2022-08-03T06:16:11;100652.41;;;20.88;60.61
37238;BME280;23129;49.662;8.448;2022-08-03T06:18:40;100651.13;;;20.94;60.47
37238;BME280;23129;49.662;8.448;2022-08-03T06:21:08;100649.75;;;21.01;60.31
37238;BME280;23129;49.662;8.448;2022-08-03T06:23:44;100642.31;;;21.06;60.31
37238;BME280;23129;49.662;8.448;2022-08-03T06:26:24;100642.81;;;21.11;59.98
37238;BME280;23129;49.662;8.448;2022-08-03T06:28:54;100647.72;;;21.17;60.16
37238;BME280;23129;49.662;8.448;2022-08-03T06:31:24;100646.44;;;21.23;59.83
37238;BME280;23129;49.662;8.448;2022-08-03T06:34:01;100647.75;;;21.30;59.62
37238;BME280;23129;49.662;8.448;2022-08-03T06:36:49;100647.34;;;21.36;59.37
37238;BME280;23129;49.662;8.448;2022-08-03T06:39:19;100646.94;;;21.42;59.23
37238;BME280;23129;49.662;8.448;2022-08-03T06:41:51;100646.50;;;21.49;59.07
37238;BME280;23129;49.662;8.448;2022-08-03T06:44:21;100648.72;;;21.55;58.89
37238;BME280;23129;49.662;8.448;2022-08-03T06:46:50;100648.16;;;21.62;58.87
37238;BME280;23129;49.662;8.448;2022-08-03T06:49:19;100648.63;;;21.69;58.74
37238;BME280;23129;49.662;8.448;2022-08-03T06:51:47;100649.03;;;21.76;58.51
37238;BME280;23129;49.662;8.448;2022-08-03T06:54:34;100645.50;;;21.75;58.57
37238;BME280;23129;49.662;8.448;2022-08-03T06:57:04;100652.84;;;21.84;58.56
37238;BME280;23129;49.662;8.448;2022-08-03T06:59:34;100652.19;;;21.94;58.21
37238;BME280;23129;49.662;8.448;2022-08-03T07:02:22;100656.88;;;22.03;58.15
37238;BME280;23129;49.662;8.448;2022-08-03T07:04:55;100655.44;;;22.10;57.78
37238;BME280;23129;49.662;8.448;2022-08-03T07:07:23;100652.13;;;22.19;57.61
37238;BME280;23129;49.662;8.448;2022-08-03T07:09:52;100653.41;;;22.26;57.43
37238;BME280;23129;49.662;8.448;2022-08-03T07:12:27;100648.31;;;22.34;57.19
37238;BME280;23129;49.662;8.448;2022-08-03T07:14:57;100649.38;;;22.45;57.33
37238;BME280;23129;49.662;8.448;2022-08-03T07:17:29;100641.63;;;22.53;57.11
37238;BME280;23129;49.662;8.448;2022-08-03T07:20:00;100654.31;;;22.62;56.98
37238;BME280;23129;49.662;8.448;2022-08-03T07:22:29;100641.72;;;22.75;56.63
37238;BME280;23129;49.662;8.448;2022-08-03T07:24:58;100650.28;;;22.92;56.73
37238;BME280;23129;49.662;8.448;2022-08-03T07:27:28;100648.44;;;23.16;55.93
37238;BME280;23129;49.662;8.448;2022-08-03T07:29:57;100649.69;;;23.46;55.47
37238;BME280;23129;49.662;8.448;2022-08-03T07:32:26;100648.63;;;23.94;54.85
37238;BME280;23129;49.662;8.448;2022-08-03T07:34:57;100651.00;;;24.63;54.33
37238;BME280;23129;49.662;8.448;2022-08-03T07:37:28;100649.03;;;25.48;52.91
37238;BME280;23129;49.662;8.448;2022-08-03T07:39:58;100650.94;;;26.38;51.58
37238;BME280;23129;49.662;8.448;2022-08-03T07:42:28;100646.50;;;27.25;50.43
37238;BME280;23129;49.662;8.448;2022-08-03T07:44:57;100636.00;;;28.06;49.01
37238;BME280;23129;49.662;8.448;2022-08-03T07:47:27;100643.13;;;28.79;47.70
37238;BME280;23129;49.662;8.448;2022-08-03T07:50:04;100635.66;;;29.43;46.91
37238;BME280;23129;49.662;8.448;2022-08-03T07:52:35;100640.34;;;30.01;46.37
37238;BME280;23129;49.662;8.448;2022-08-03T07:55:18;100634.19;;;30.50;45.60
37238;BME280;23129;49.662;8.448;2022-08-03T07:58:03;100633.91;;;30.93;45.37
37238;BME280;23129;49.662;8.448;2022-08-03T08:00:32;100627.75;;;31.24;43.74
37238;BME280;23129;49.662;8.448;2022-08-03T08:03:01;100633.47;;;31.54;42.89
37238;BME280;23129;49.662;8.448;2022-08-03T08:05:29;100630.03;;;31.68;42.17
37238;BME280;23129;49.662;8.448;2022-08-03T08:07:58;100629.66;;;31.71;42.13
37238;BME280;23129;49.662;8.448;2022-08-03T08:10:27;100636.41;;;31.75;41.90
37238;BME280;23129;49.662;8.448;2022-08-03T08:12:58;100628.25;;;31.83;40.87
37238;BME280;23129;49.662;8.448;2022-08-03T08:15:27;100627.56;;;31.90;40.53
37238;BME280;23129;49.662;8.448;2022-08-03T08:17:57;100626.19;;;31.86;40.33
37238;BME280;23129;49.662;8.448;2022-08-03T08:20:32;100627.25;;;31.76;40.28
37238;BME280;23129;49.662;8.448;2022-08-03T08:23:07;100622.31;;;31.80;39.96
37238;BME280;23129;49.662;8.448;2022-08-03T08:25:55;100625.00;;;31.88;39.52
37238;BME280;23129;49.662;8.448;2022-08-03T08:28:25;100621.09;;;31.99;39.04
37238;BME280;23129;49.662;8.448;2022-08-03T08:30:59;100619.28;;;32.14;38.40
37238;BME280;23129;49.662;8.448;2022-08-03T08:33:28;100619.69;;;32.34;38.25
37238;BME280;23129;49.662;8.448;2022-08-03T08:36:17;100615.88;;;32.66;37.59
37238;BME280;23129;49.662;8.448;2022-08-03T08:38:46;100616.63;;;32.98;36.80
37238;BME280;23129;49.662;8.448;2022-08-03T08:41:15;100618.63;;;33.19;36.26
37238;BME280;23129;49.662;8.448;2022-08-03T08:43:45;100612.16;;;33.35;35.95
37238;BME280;23129;49.662;8.448;2022-08-03T08:46:15;100613.38;;;33.47;35.69
37238;BME280;23129;49.662;8.448;2022-08-03T08:48:51;100610.03;;;33.45;35.33
37238;BME280;23129;49.662;8.448;2022-08-03T08:51:21;100608.25;;;33.52;34.95
37238;BME280;23129;49.662;8.448;2022-08-03T08:54:15;100608.78;;;33.62;34.88
37238;BME280;23129;49.662;8.448;2022-08-03T08:56:46;100603.59;;;33.82;34.56
37238;BME280;23129;49.662;8.448;2022-08-03T08:59:17;100609.22;;;33.96;34.28
37238;BME280;23129;49.662;8.448;2022-08-03T09:01:45;100603.09;;;34.08;33.77
37238;BME280;23129;49.662;8.448;2022-08-03T09:04:14;100606.63;;;34.24;33.58
37238;BME280;23129;49.662;8.448;2022-08-03T09:06:43;100604.34;;;34.49;33.06
37238;BME280;23129;49.662;8.448;2022-08-03T09:09:31;100598.53;;;34.73;32.87
37238;BME280;23129;49.662;8.448;2022-08-03T09:12:20;100603.59;;;35.05;32.19
37238;BME280;23129;49.662;8.448;2022-08-03T09:15:21;100600.38;;;35.29;32.05
37238;BME280;23129;49.662;8.448;2022-08-03T09:17:52;100604.34;;;35.55;31.50
37238;BME280;23129;49.662;8.448;2022-08-03T09:20:24;100596.44;;;35.73;31.43
37238;BME280;23129;49.662;8.448;2022-08-03T09:22:56;100589.16;;;35.94;30.64
37238;BME280;23129;49.662;8.448;2022-08-03T09:25:33;100593.97;;;35.98;30.98
37238;BME280;23129;49.662;8.448;2022-08-03T09:28:08;100591.69;;;36.02;30.59
37238;BME280;23129;49.662;8.448;2022-08-03T09:30:42;100600.84;;;36.29;29.83
37238;BME280;23129;49.662;8.448;2022-08-03T09:33:13;100603.75;;;36.41;29.96
37238;BME280;23129;49.662;8.448;2022-08-03T09:35:44;100601.72;;;36.56;29.21
37238;BME280;23129;49.662;8.448;2022-08-03T09:38:24;100598.34;;;36.81;29.32
37238;BME280;23129;49.662;8.448;2022-08-03T09:40:54;100589.94;;;36.89;28.80
37238;BME280;23129;49.662;8.448;2022-08-03T09:43:27;100588.66;;;36.91;28.64
37238;BME280;23129;49.662;8.448;2022-08-03T09:46:04;100592.03;;;37.13;28.53
37238;BME280;23129;49.662;8.448;2022-08-03T09:48:34;100586.47;;;37.33;28.11
37238;BME280;23129;49.662;8.448;2022-08-03T09:51:04;100578.88;;;37.42;27.66
37238;BME280;23129;49.662;8.448;2022-08-03T09:53:53;100587.69;;;37.57;27.62
37238;BME280;23129;49.662;8.448;2022-08-03T09:56:41;100580.50;;;37.69;27.84
37238;BME280;23129;49.662;8.448;2022-08-03T09:59:12;100580.84;;;37.80;26.90
37238;BME280;23129;49.662;8.448;2022-08-03T10:01:42;100572.38;;;37.88;26.82
37238;BME280;23129;49.662;8.448;2022-08-03T10:04:12;100584.22;;;37.75;26.66
37238;BME280;23129;49.662;8.448;2022-08-03T10:06:43;100580.06;;;37.73;27.07
37238;BME280;23129;49.662;8.448;2022-08-03T10:09:14;100582.09;;;37.84;26.45
37238;BME280;23129;49.662;8.448;2022-08-03T10:11:44;100581.53;;;38.13;26.13
37238;BME280;23129;49.662;8.448;2022-08-03T10:14:13;100573.63;;;38.30;25.67
37238;BME280;23129;49.662;8.448;2022-08-03T10:16:48;100578.81;;;38.45;25.42
37238;BME280;23129;49.662;8.448;2022-08-03T10:19:17;100570.63;;;38.64;25.17
37238;BME280;23129;49.662;8.448;2022-08-03T10:21:49;100561.66;;;38.75;25.14
37238;BME280;23129;49.662;8.448;2022-08-03T10:24:25;100564.91;;;38.90;25.06
37238;BME280;23129;49.662;8.448;2022-08-03T10:27:02;100558.78;;;39.13;25.01
37238;BME280;23129;49.662;8.448;2022-08-03T10:29:37;100554.31;;;39.37;24.63
37238;BME280;23129;49.662;8.448;2022-08-03T10:32:12;100557.13;;;39.61;24.23
37238;BME280;23129;49.662;8.448;2022-08-03T10:34:42;100552.25;;;39.81;23.79
37238;BME280;23129;49.662;8.448;2022-08-03T10:37:15;100543.69;;;39.89;23.86
37238;BME280;23129;49.662;8.448;2022-08-03T10:39:44;100541.13;;;39.76;23.48
37238;BME280;23129;49.662;8.448;2022-08-03T10:42:22;100544.16;;;39.68;23.72
37238;BME280;23129;49.662;8.448;2022-08-03T10:45:03;100534.56;;;39.77;23.71
37238;BME280;23129;49.662;8.448;2022-08-03T10:47:33;100526.25;;;39.96;23.38
37238;BME280;23129;49.662;8.448;2022-08-03T10:50:04;100533.56;;;40.02;23.09
37238;BME280;23129;49.662;8.448;2022-08-03T10:52:33;100537.25;;;39.96;23.11
37238;BME280;23129;49.662;8.448;2022-08-03T10:55:29;100527.88;;;39.85;23.52
37238;BME280;23129;49.662;8.448;2022-08-03T10:58:45;100515.59;;;39.87;23.55
37238;BME280;23129;49.662;8.448;2022-08-03T11:01:51;100508.09;;;39.94;23.31
37238;BME280;23129;49.662;8.448;2022-08-03T11:04:28;100511.97;;;39.75;23.03
37238;BME280;23129;49.662;8.448;2022-08-03T11:07:20;100504.75;;;39.62;23.30
37238;BME280;23129;49.662;8.448;2022-08-03T11:09:51;100504.97;;;39.79;23.10
37238;BME280;23129;49.662;8.448;2022-08-03T11:12:21;100508.50;;;40.10;22.60
37238;BME280;23129;49.662;8.448;2022-08-03T11:15:00;100508.22;;;40.00;22.78
37238;BME280;23129;49.662;8.448;2022-08-03T11:17:30;100496.38;;;39.99;22.63
37238;BME280;23129;49.662;8.448;2022-08-03T11:20:00;100500.84;;;40.12;22.70
37238;BME280;23129;49.662;8.448;2022-08-03T11:22:49;100498.13;;;40.24;22.53
37238;BME280;23129;49.662;8.448;2022-08-03T11:25:20;100503.25;;;40.20;22.50
37238;BME280;23129;49.662;8.448;2022-08-03T11:28:25;100500.38;;;40.15;22.44
37238;BME280;23129;49.662;8.448;2022-08-03T11:30:54;100505.66;;;40.28;22.29
37238;BME280;23129;49.662;8.448;2022-08-03T11:33:29;100506.16;;;40.49;21.75
37238;BME280;23129;49.662;8.448;2022-08-03T11:36:01;100504.50;;;40.48;21.84
37238;BME280;23129;49.662;8.448;2022-08-03T11:38:29;100496.25;;;40.48;21.99
37238;BME280;23129;49.662;8.448;2022-08-03T11:40:58;100496.38;;;40.65;21.89
37238;BME280;23129;49.662;8.448;2022-08-03T11:43:45;100488.72;;;40.55;21.67
37238;BME280;23129;49.662;8.448;2022-08-03T11:46:14;100501.03;;;40.76;21.31
37238;BME280;23129;49.662;8.448;2022-08-03T11:49:04;100482.59;;;40.88;21.55
37238;BME280;23129;49.662;8.448;2022-08-03T11:51:38;100480.91;;;40.99;21.16
37238;BME280;23129;49.662;8.448;2022-08-03T11:54:07;100475.97;;;41.01;21.46
37238;BME280;23129;49.662;8.448;2022-08-03T11:56:45;100482.31;;;41.01;21.09
37238;BME280;23129;49.662;8.448;2022-08-03T11:59:14;100472.66;;;40.99;20.96
37238;BME280;23129;49.662;8.448;2022-08-03T12:01:49;100477.91;;;41.12;21.01
37238;BME280;23129;49.662;8.448;2022-08-03T12:04:17;100473.56;;;41.16;21.42
37238;BME280;23129;49.662;8.448;2022-08-03T12:06:59;100474.91;;;41.02;21.01
37238;BME280;23129;49.662;8.448;2022-08-03T12:09:28;100469.34;;;40.73;21.34
37238;BME280;23129;49.662;8.448;2022-08-03T12:11:56;100474.94;;;40.55;21.27
37238;BME280;23129;49.662;8.448;2022-08-03T12:14:27;100467.31;;;40.45;21.20
37238;BME280;23129;49.662;8.448;2022-08-03T12:17:16;100468.28;;;40.27;21.26
37238;BME280;23129;49.662;8.448;2022-08-03T12:19:45;100464.66;;;40.15;21.57
37238;BME280;23129;49.662;8.448;2022-08-03T12:22:15;100461.63;;;40.05;21.46
37238;BME280;23129;49.662;8.448;2022-08-03T12:24:57;100462.34;;;39.88;21.74
37238;BME280;23129;49.662;8.448;2022-08-03T12:27:26;100463.16;;;39.89;21.81
37238;BME280;23129;49.662;8.448;2022-08-03T12:29:57;100457.81;;;40.06;21.62
37238;BME280;23129;49.662;8.448;2022-08-03T12:32:27;100457.28;;;40.51;21.33
37238;BME280;23129;49.662;8.448;2022-08-03T12:34:57;100456.47;;;41.02;20.95
37238;BME280;23129;49.662;8.448;2022-08-03T12:37:30;100455.94;;;41.29;20.94
37238;BME280;23129;49.662;8.448;2022-08-03T12:40:00;100446.19;;;41.50;20.63
37238;BME280;23129;49.662;8.448;2022-08-03T12:42:38;100447.50;;;41.64;20.68
37238;BME280;23129;49.662;8.448;2022-08-03T12:45:21;100452.38;;;41.74;20.76
37238;BME280;23129;49.662;8.448;2022-08-03T12:47:52;100457.22;;;41.84;20.87
37238;BME280;23129;49.662;8.448;2022-08-03T12:50:28;100458.25;;;42.11;20.81
37238;BME280;23129;49.662;8.448;2022-08-03T12:53:00;100446.91;;;42.25;20.34
37238;BME280;23129;49.662;8.448;2022-08-03T12:55:31;100450.25;;;42.10;20.36
37238;BME280;23129;49.662;8.448;2022-08-03T12:58:29;100457.56;;;41.87;20.30
37238;BME280;23129;49.662;8.448;2022-08-03T13:01:02;100451.47;;;41.85;20.64
37238;BME280;23129;49.662;8.448;2022-08-03T13:03:40;100452.19;;;41.64;20.24
37238;BME280;23129;49.662;8.448;2022-08-03T13:06:12;100445.69;;;41.53;20.35
37238;BME280;23129;49.662;8.448;2022-08-03T13:08:43;100440.19;;;41.53;20.39
37238;BME280;23129;49.662;8.448;2022-08-03T13:11:22;100449.22;;;41.65;20.40
37238;BME280;23129;49.662;8.448;2022-08-03T13:14:10;100435.03;;;41.73;19.95
37238;BME280;23129;49.662;8.448;2022-08-03T13:16:46;100431.28;;;41.96;20.18
37238;BME280;23129;49.662;8.448;2022-08-03T13:19:14;100431.69;;;42.39;19.37
37238;BME280;23129;49.662;8.448;2022-08-03T13:21:43;100432.13;;;42.70;19.78
37238;BME280;23129;49.662;8.448;2022-08-03T13:24:32;100428.13;;;43.04;19.35
37238;BME280;23129;49.662;8.448;2022-08-03T13:27:01;100425.56;;;43.20;19.21